createdAt,value
2023-05-10T00:04:16.198Z,10.68
2023-05-10T00:09:18.382Z,9.80
2023-05-10T00:14:23.954Z,10.27
2023-05-10T00:19:25.944Z,9.65
2023-05-10T00:24:28.680Z,10.85
2023-05-10T00:29:32.497Z,11.10
2023-05-10T00:34:37.902Z,9.90
2023-05-10T00:39:43.383Z,11.25
2023-05-10T00:44:48.757Z,9.88
2023-05-10T00:49:51.391Z,9.90
2023-05-10T00:54:53.707Z,11.82
2023-05-10T01:10:50.973Z,11.43
2023-05-10T01:15:53.440Z,10.43
2023-05-10T01:21:05.293Z,12.27
2023-05-10T01:26:39.379Z,11.30
2023-05-10T01:32:05.605Z,10.73
2023-05-10T01:37:11.609Z,10.70
2023-05-10T01:42:19.329Z,10.77
2023-05-10T01:47:29.845Z,11.18
2023-05-10T01:52:36.577Z,10.93
2023-05-10T01:57:39.909Z,11.07
2023-05-10T02:02:46.841Z,11.55
2023-05-10T02:07:50.395Z,9.70
2023-05-10T02:12:54.459Z,11.52
2023-05-10T02:18:00.817Z,12.00
2023-05-10T02:23:04.614Z,11.77
2023-05-10T02:28:11.350Z,11.55
2023-05-10T02:33:15.302Z,11.10
2023-05-10T02:38:31.430Z,10.55
2023-05-10T02:44:00.454Z,11.98
2023-05-10T02:49:09.914Z,11.50
2023-05-10T02:54:16.578Z,10.63
2023-05-10T02:59:18.365Z,12.20
2023-05-10T03:04:24.389Z,12.30
2023-05-10T03:09:26.324Z,11.50
2023-05-10T03:14:43.763Z,12.68
2023-05-10T03:19:53.334Z,11.43
2023-05-10T03:24:56.961Z,12.20
2023-05-10T03:29:59.553Z,11.45
2023-05-10T03:35:06.883Z,11.00
2023-05-10T03:40:09.764Z,11.00
2023-05-10T03:45:12.183Z,11.35
2023-05-10T03:50:15.720Z,12.02
2023-05-10T03:55:18.160Z,12.23
2023-05-10T04:00:20.734Z,12.20
2023-05-10T04:05:24.172Z,12.07
2023-05-10T04:10:26.023Z,12.13
2023-05-10T04:15:27.837Z,12.55
2023-05-10T04:20:32.934Z,13.13
2023-05-10T04:25:35.525Z,11.52
2023-05-10T04:30:40.173Z,12.15
2023-05-10T04:35:43.763Z,13.65
2023-05-10T04:46:11.999Z,11.95
2023-05-10T04:51:15.400Z,11.80
2023-05-10T04:56:42.025Z,12.75
2023-05-10T05:01:44.420Z,15.00
2023-05-10T05:06:47.722Z,14.27
2023-05-10T05:11:49.615Z,12.75
2023-05-10T05:16:54.333Z,13.43
2023-05-10T05:22:04.035Z,13.82
2023-05-10T05:27:05.872Z,15.02
2023-05-10T05:32:07.736Z,12.43
2023-05-10T05:37:13.944Z,12.63
2023-05-10T05:42:16.167Z,13.90
2023-05-10T05:47:17.937Z,13.70
2023-05-10T05:52:21.320Z,13.23
2023-05-10T05:57:23.112Z,13.45
2023-05-10T06:02:24.969Z,13.55
2023-05-10T06:07:28.154Z,13.32
2023-05-10T06:12:29.887Z,13.55
2023-05-10T06:17:34.733Z,13.18
2023-05-10T06:22:37.909Z,13.48
2023-05-10T06:27:39.699Z,13.02
2023-05-10T06:32:41.619Z,13.02
2023-05-10T06:37:45.172Z,13.90
2023-05-10T06:42:47.308Z,13.95
2023-05-10T06:47:49.240Z,13.32
2023-05-10T06:52:53.143Z,14.10
2023-05-10T06:57:55.090Z,14.27
2023-05-10T07:02:59.181Z,13.70
2023-05-10T07:08:02.472Z,14.43
2023-05-10T07:13:04.235Z,13.45
2023-05-10T07:18:06.223Z,15.38
2023-05-10T07:23:09.384Z,13.80
2023-05-10T07:28:16.920Z,14.00
2023-05-10T07:33:18.712Z,13.10
2023-05-10T07:38:22.414Z,13.90
2023-05-10T07:43:24.340Z,13.05
2023-05-10T07:48:26.170Z,14.40
2023-05-10T07:53:29.415Z,13.45
2023-05-10T07:58:32.181Z,13.48
2023-05-10T08:03:34.047Z,11.82
2023-05-10T08:08:37.164Z,14.45
2023-05-10T08:13:38.899Z,13.85
2023-05-10T08:18:41.018Z,13.02
2023-05-10T08:23:44.259Z,15.43
2023-05-10T08:28:45.982Z,13.30
2023-05-10T08:33:47.752Z,12.35
2023-05-10T08:38:52.288Z,12.15
2023-05-10T08:43:55.098Z,12.83
2023-05-10T08:49:02.789Z,12.68
2023-05-10T08:54:06.485Z,13.10
2023-05-10T08:59:08.455Z,12.85
2023-05-10T09:04:10.394Z,13.40
2023-05-10T09:09:13.805Z,13.23
2023-05-10T09:14:17.359Z,13.00
2023-05-10T09:19:19.163Z,14.27
2023-05-10T09:24:26.629Z,14.55
2023-05-10T09:29:40.183Z,13.13
2023-05-10T09:34:41.899Z,15.00
2023-05-10T09:39:44.985Z,12.95
2023-05-10T09:44:47.056Z,12.85
2023-05-10T09:49:50.822Z,13.27
2023-05-10T09:54:55.540Z,13.02
2023-05-10T09:59:57.502Z,13.05
2023-05-10T10:05:01.546Z,12.18
2023-05-10T10:10:05.551Z,13.00
2023-05-10T10:15:08.885Z,12.45
2023-05-10T10:20:20.513Z,13.13
2023-05-10T10:25:34.245Z,12.50
2023-05-10T10:30:42.784Z,12.73
2023-05-10T10:35:46.352Z,12.55
2023-05-10T10:41:02.351Z,12.48
2023-05-10T10:46:15.804Z,12.40
2023-05-10T10:51:17.879Z,11.90
2023-05-10T10:56:23.330Z,12.25
2023-05-10T11:01:33.165Z,12.05
2023-05-10T11:06:36.549Z,12.68
2023-05-10T11:11:50.048Z,11.73
2023-05-10T11:16:52.148Z,12.25
2023-05-10T11:22:14.789Z,12.32
2023-05-10T11:27:22.519Z,13.27
2023-05-10T11:32:24.436Z,12.15
2023-05-10T11:37:29.467Z,12.55
2023-05-10T11:42:32.830Z,12.95
2023-05-10T11:47:34.691Z,12.02
2023-05-10T11:52:38.170Z,11.18
2023-05-10T11:57:41.539Z,11.60
2023-05-10T12:02:43.526Z,11.40
2023-05-10T12:08:21.845Z,11.32
2023-05-10T12:13:25.081Z,11.20
2023-05-10T12:18:26.870Z,11.40
2023-05-10T12:23:31.593Z,11.00
2023-05-10T12:28:54.450Z,11.38
2023-05-10T12:33:56.355Z,10.07
2023-05-10T12:39:03.926Z,13.50
2023-05-10T12:44:50.712Z,10.68
2023-05-10T12:49:57.305Z,9.65
2023-05-10T12:55:14.207Z,10.02
2023-05-10T13:00:20.313Z,10.88
2023-05-10T13:05:22.081Z,10.65
2023-05-10T13:10:37.591Z,10.68
2023-05-10T13:15:51.884Z,10.52
2023-05-10T13:20:59.490Z,10.95
2023-05-10T13:32:04.719Z,11.25
2023-05-10T13:37:20.511Z,10.15
2023-05-10T13:42:51.226Z,10.27
2023-05-10T13:47:54.745Z,11.32
2023-05-10T13:53:05.152Z,11.80
2023-05-10T13:58:07.025Z,10.15
2023-05-10T14:03:10.423Z,10.43
2023-05-10T14:08:12.456Z,11.93
2023-05-10T14:13:14.247Z,10.35
2023-05-10T14:18:17.531Z,9.85
2023-05-10T14:23:19.296Z,10.52
2023-05-10T14:28:21.254Z,9.30
2023-05-10T14:33:24.473Z,10.45
2023-05-10T14:38:49.939Z,11.50
2023-05-10T14:49:20.756Z,11.40
2023-05-10T14:54:25.638Z,10.15
2023-05-10T15:04:46.425Z,11.38
2023-05-10T15:09:50.598Z,10.48
2023-05-10T15:14:52.524Z,11.10
2023-05-10T15:19:55.551Z,11.12
2023-05-10T15:24:57.300Z,11.40
2023-05-10T15:29:59.011Z,10.65
2023-05-10T15:35:02.194Z,10.65
2023-05-10T15:40:14.499Z,10.95
2023-05-10T15:45:20.017Z,10.95
2023-05-10T15:50:23.360Z,10.52
2023-05-10T15:55:25.824Z,10.95
2023-05-10T16:00:27.580Z,11.90
2023-05-10T16:05:30.847Z,11.90
2023-05-10T16:10:32.801Z,11.55
2023-05-10T16:15:34.577Z,11.70
2023-05-10T16:20:38.942Z,10.77
2023-05-10T16:25:40.758Z,11.23
2023-05-10T16:30:42.548Z,11.30
2023-05-10T16:35:45.658Z,9.77
2023-05-10T16:40:47.467Z,11.07
2023-05-10T16:45:49.256Z,11.60
2023-05-10T16:50:52.469Z,9.63
2023-05-10T16:55:54.252Z,10.70
2023-05-10T17:00:56.047Z,11.77
2023-05-10T17:05:59.382Z,11.12
2023-05-10T17:11:01.651Z,12.63
2023-05-10T17:16:03.540Z,11.55
2023-05-10T17:21:08.737Z,11.93
2023-05-10T17:26:10.559Z,11.50
2023-05-10T17:31:13.261Z,10.68
2023-05-10T17:36:16.654Z,11.12
2023-05-10T17:41:18.412Z,12.13
2023-05-10T17:46:20.539Z,11.35
2023-05-10T17:51:23.911Z,11.88
2023-05-10T17:56:25.639Z,12.65
2023-05-10T18:01:27.487Z,12.18
2023-05-10T18:06:32.199Z,11.77
2023-05-10T18:11:35.046Z,11.30
2023-05-10T18:16:36.934Z,11.52
2023-05-10T18:21:40.183Z,13.13
2023-05-10T18:26:42.524Z,11.95
2023-05-10T18:31:44.366Z,12.30
2023-05-10T18:36:47.655Z,11.70
2023-05-10T18:41:50.133Z,11.18
2023-05-10T18:46:52.165Z,12.15
2023-05-10T18:51:55.389Z,13.45
2023-05-10T18:56:59.167Z,12.50
2023-05-10T19:02:01.044Z,12.88
2023-05-10T19:07:04.293Z,12.20
2023-05-10T19:12:06.229Z,12.18
2023-05-10T19:17:08.072Z,12.80
2023-05-10T19:22:12.676Z,12.65
2023-05-10T19:27:14.569Z,12.17
2023-05-10T19:32:16.348Z,12.37
2023-05-10T19:37:19.704Z,12.43
2023-05-10T19:42:21.466Z,12.80
2023-05-10T19:47:26.707Z,14.65
2023-05-10T19:57:31.476Z,13.20
2023-05-10T20:02:33.195Z,12.50
2023-05-10T20:07:36.459Z,12.90
2023-05-10T20:12:38.422Z,12.80
2023-05-10T20:17:40.286Z,12.55
2023-05-10T20:22:43.731Z,13.15
2023-05-10T20:27:46.203Z,13.77
2023-05-10T20:32:48.016Z,12.98
2023-05-10T20:37:51.185Z,12.48
2023-05-10T20:42:52.946Z,13.02
2023-05-10T20:47:54.795Z,12.45
2023-05-10T20:52:58.525Z,11.75
2023-05-10T20:58:00.771Z,12.00
2023-05-10T21:03:05.320Z,12.50
2023-05-10T21:08:08.492Z,11.63
2023-05-10T21:13:12.816Z,12.88
2023-05-10T21:18:14.583Z,12.47
2023-05-10T21:23:17.787Z,12.68
2023-05-10T21:28:22.210Z,12.15
2023-05-10T21:33:24.382Z,12.17
2023-05-10T21:38:29.414Z,12.60
2023-05-10T21:43:31.147Z,12.00
2023-05-10T21:48:32.911Z,12.93
2023-05-10T21:53:37.309Z,12.02
2023-05-10T21:58:39.062Z,13.30
2023-05-10T22:03:41.082Z,13.93
2023-05-10T22:08:44.482Z,13.13
2023-05-10T22:13:46.218Z,12.75
2023-05-10T22:18:47.976Z,12.23
2023-05-10T22:23:51.029Z,12.37
2023-05-10T22:28:52.676Z,13.30
2023-05-10T22:33:54.422Z,11.98
2023-05-10T22:39:01.096Z,12.88
2023-05-10T22:44:02.766Z,11.77
2023-05-10T22:49:04.521Z,11.98
2023-05-10T22:54:07.688Z,13.82
2023-05-10T22:59:09.423Z,11.10
2023-05-10T23:04:11.201Z,11.93
2023-05-10T23:09:14.447Z,12.95
2023-05-10T23:14:16.213Z,12.85
2023-05-10T23:19:17.951Z,11.65
2023-05-10T23:24:21.067Z,13.20
2023-05-10T23:29:22.747Z,11.80
2023-05-10T23:34:24.788Z,12.32
2023-05-10T23:39:27.938Z,12.98
2023-05-10T23:44:29.597Z,12.77
2023-05-10T23:49:31.350Z,12.65
2023-05-10T23:54:37.208Z,11.30
2023-05-10T23:59:39.660Z,12.20
